This is the latest recevied weather packets stored in our database for station/object K3HW. If no packets are shown the sender has not sent any weather packets the latest 10 day(s).
| Time | Temp. | Humidity | Pressure | Rain* | Wind** | Luminosity | Snow |
|---|---|---|---|---|---|---|---|
| 1777930544 | 22.78° C | 36% | 1013.4 hPa | 0 mm | - | 235 W/m² | - |
| 1777930241 | 22.78° C | 40% | 1013.1 hPa | 0 mm | - | 246 W/m² | - |
| 1777929937 | 22.78° C | 37% | 1013.3 hPa | 0 mm | - | 235 W/m² | - |
| 1777929634 | 22.78° C | 38% | 1013.3 hPa | 0 mm | - | 63 W/m² | - |
| 1777929331 | 22.78° C | 38% | 1013.4 hPa | 0 mm | - | 70 W/m² | - |
| 1777929028 | 22.78° C | 39% | 1013.1 hPa | 0 mm | - | 285 W/m² | - |
| 1777928725 | 22.22° C | 40% | 1013.2 hPa | 0 mm | - | 229 W/m² | - |
| 1777928422 | 22.78° C | 37% | 1013.4 hPa | 0 mm | - | 220 W/m² | - |
| 1777928120 | 22.78° C | 41% | 1013.3 hPa | 0 mm | - | 45 W/m² | - |
| 1777927818 | 22.78° C | 41% | 1013.2 hPa | 0 mm | - | 255 W/m² | - |
| 1777927515 | 22.22° C | 40% | 1013.4 hPa | 0 mm | - | 110 W/m² | - |
| 1777927214 | 22.22° C | 38% | 1013.3 hPa | 0 mm | - | 134 W/m² | - |
| 1777926912 | 22.78° C | 37% | 1013.3 hPa | 0 mm | - | 120 W/m² | - |
| 1777926609 | 22.22° C | 38% | 1013.5 hPa | 0 mm | - | 118 W/m² | - |
| 1777926304 | 22.22° C | 38% | 1013.5 hPa | 0 mm | - | 55 W/m² | - |
| 1777926001 | 22.22° C | 37% | 1013.4 hPa | 0 mm | - | 88 W/m² | - |
| 1777925698 | 22.22° C | 39% | 1013.6 hPa | 0 mm | - | 117 W/m² | - |
| 1777925396 | 22.22° C | 38% | 1013.5 hPa | 0 mm | - | 109 W/m² | - |
| 1777925092 | 22.22° C | 38% | 1013.6 hPa | 0 mm | - | 76 W/m² | - |
| 1777924789 | 22.22° C | 38% | 1013.6 hPa | 0 mm | - | 61 W/m² | - |
| 1777924485 | 22.22° C | 39% | 1013.7 hPa | 0 mm | - | 51 W/m² | - |
| 1777924182 | 22.22° C | 37% | 1013.6 hPa | 0 mm | - | 152 W/m² | - |
| 1777923878 | 22.22° C | 40% | 1013.9 hPa | 0 mm | - | 51 W/m² | - |
| 1777923574 | 22.22° C | 37% | 1013.6 hPa | 0 mm | - | 283 W/m² | - |
| 1777923271 | 22.22° C | 37% | 1013.6 hPa | 0 mm | - | 215 W/m² | - |
* Rain latest hour (hover to see other rain measurements)
** Current wind speed in m/s (hover to see current wind gust speed)